sensor_id;sensor_type;location;lat;lon;timestamp;temperature;humidity
22108;DHT22;11220;48.812;9.128;2023-01-15T00:01:44;17.70;79.90
22108;DHT22;11220;48.812;9.128;2023-01-15T00:04:12;17.70;79.90
22108;DHT22;11220;48.812;9.128;2023-01-15T00:06:40;17.70;79.90
22108;DHT22;11220;48.812;9.128;2023-01-15T00:09:07;17.70;79.80
22108;DHT22;11220;48.812;9.128;2023-01-15T00:11:33;17.70;79.80
22108;DHT22;11220;48.812;9.128;2023-01-15T00:13:58;17.70;79.80
22108;DHT22;11220;48.812;9.128;2023-01-15T00:16:25;17.70;79.70
22108;DHT22;11220;48.812;9.128;2023-01-15T00:18:56;17.70;79.80
22108;DHT22;11220;48.812;9.128;2023-01-15T00:21:26;17.70;79.70
22108;DHT22;11220;48.812;9.128;2023-01-15T00:23:53;17.70;79.70
22108;DHT22;11220;48.812;9.128;2023-01-15T00:26:38;17.70;79.70
22108;DHT22;11220;48.812;9.128;2023-01-15T00:29:23;17.70;79.60
22108;DHT22;11220;48.812;9.128;2023-01-15T00:32:01;17.70;79.70
22108;DHT22;11220;48.812;9.128;2023-01-15T00:34:27;17.60;79.60
22108;DHT22;11220;48.812;9.128;2023-01-15T00:36:52;17.60;79.70
22108;DHT22;11220;48.812;9.128;2023-01-15T00:39:18;17.70;79.70
22108;DHT22;11220;48.812;9.128;2023-01-15T00:41:44;17.80;79.70
22108;DHT22;11220;48.812;9.128;2023-01-15T00:44:10;18.80;80.30
22108;DHT22;11220;48.812;9.128;2023-01-15T00:46:35;17.60;79.50
22108;DHT22;11220;48.812;9.128;2023-01-15T00:49:02;17.60;79.60
22108;DHT22;11220;48.812;9.128;2023-01-15T00:51:27;17.60;79.60
22108;DHT22;11220;48.812;9.128;2023-01-15T00:53:53;17.60;79.50
22108;DHT22;11220;48.812;9.128;2023-01-15T00:56:18;17.60;79.50
22108;DHT22;11220;48.812;9.128;2023-01-15T00:58:44;17.60;79.50
22108;DHT22;11220;48.812;9.128;2023-01-15T01:01:12;17.60;79.50
22108;DHT22;11220;48.812;9.128;2023-01-15T01:03:38;17.60;79.50
22108;DHT22;11220;48.812;9.128;2023-01-15T01:06:04;17.60;79.50
22108;DHT22;11220;48.812;9.128;2023-01-15T01:08:29;17.60;79.50
22108;DHT22;11220;48.812;9.128;2023-01-15T01:11:03;17.60;79.50
22108;DHT22;11220;48.812;9.128;2023-01-15T01:13:29;17.60;79.50
22108;DHT22;11220;48.812;9.128;2023-01-15T01:15:55;17.60;79.50
22108;DHT22;11220;48.812;9.128;2023-01-15T01:18:20;17.60;79.50
22108;DHT22;11220;48.812;9.128;2023-01-15T01:20:46;17.60;79.50
22108;DHT22;11220;48.812;9.128;2023-01-15T01:23:11;17.60;79.50
22108;DHT22;11220;48.812;9.128;2023-01-15T01:25:36;17.60;79.50
22108;DHT22;11220;48.812;9.128;2023-01-15T01:28:02;17.60;80.40
22108;DHT22;11220;48.812;9.128;2023-01-15T01:30:28;17.60;79.50
22108;DHT22;11220;48.812;9.128;2023-01-15T01:32:53;17.60;79.50
22108;DHT22;11220;48.812;9.128;2023-01-15T01:35:19;17.60;79.50
22108;DHT22;11220;48.812;9.128;2023-01-15T01:37:49;17.60;79.50
22108;DHT22;11220;48.812;9.128;2023-01-15T01:40:15;17.60;79.50
22108;DHT22;11220;48.812;9.128;2023-01-15T01:42:40;17.60;79.40
22108;DHT22;11220;48.812;9.128;2023-01-15T01:47:49;17.60;79.40
22108;DHT22;11220;48.812;9.128;2023-01-15T01:50:15;17.60;79.40
22108;DHT22;11220;48.812;9.128;2023-01-15T01:52:46;17.60;79.40
22108;DHT22;11220;48.812;9.128;2023-01-15T01:55:15;17.60;79.40
22108;DHT22;11220;48.812;9.128;2023-01-15T01:57:42;17.60;79.40
22108;DHT22;11220;48.812;9.128;2023-01-15T02:00:09;17.60;79.40
22108;DHT22;11220;48.812;9.128;2023-01-15T02:02:36;17.60;79.40
22108;DHT22;11220;48.812;9.128;2023-01-15T02:05:03;17.50;79.30
22108;DHT22;11220;48.812;9.128;2023-01-15T02:07:29;17.60;79.30
22108;DHT22;11220;48.812;9.128;2023-01-15T02:09:57;17.50;79.30
22108;DHT22;11220;48.812;9.128;2023-01-15T02:12:54;17.50;79.30
22108;DHT22;11220;48.812;9.128;2023-01-15T02:15:27;17.60;79.40
22108;DHT22;11220;48.812;9.128;2023-01-15T02:20:39;17.50;79.40
22108;DHT22;11220;48.812;9.128;2023-01-15T02:28:38;17.50;79.30
22108;DHT22;11220;48.812;9.128;2023-01-15T02:33:53;17.50;79.30
22108;DHT22;11220;48.812;9.128;2023-01-15T02:36:22;17.60;79.30
22108;DHT22;11220;48.812;9.128;2023-01-15T02:38:50;17.50;79.30
22108;DHT22;11220;48.812;9.128;2023-01-15T02:41:21;17.50;79.30
22108;DHT22;11220;48.812;9.128;2023-01-15T02:43:52;17.50;79.30
22108;DHT22;11220;48.812;9.128;2023-01-15T02:46:20;17.50;79.30
22108;DHT22;11220;48.812;9.128;2023-01-15T02:48:52;17.50;79.30
22108;DHT22;11220;48.812;9.128;2023-01-15T02:51:24;17.50;79.30
22108;DHT22;11220;48.812;9.128;2023-01-15T02:53:52;17.50;79.30
22108;DHT22;11220;48.812;9.128;2023-01-15T02:56:22;17.50;79.30
22108;DHT22;11220;48.812;9.128;2023-01-15T02:58:52;17.50;79.30
22108;DHT22;11220;48.812;9.128;2023-01-15T03:04:23;17.50;79.30
22108;DHT22;11220;48.812;9.128;2023-01-15T03:09:21;17.50;79.30
22108;DHT22;11220;48.812;9.128;2023-01-15T03:14:43;17.50;79.30
22108;DHT22;11220;48.812;9.128;2023-01-15T03:17:23;17.50;80.20
22108;DHT22;11220;48.812;9.128;2023-01-15T03:19:55;17.50;79.30
22108;DHT22;11220;48.812;9.128;2023-01-15T03:22:29;17.40;79.20
22108;DHT22;11220;48.812;9.128;2023-01-15T03:25:10;17.50;79.30
22108;DHT22;11220;48.812;9.128;2023-01-15T03:27:37;17.50;79.30
22108;DHT22;11220;48.812;9.128;2023-01-15T03:30:07;17.50;79.30
22108;DHT22;11220;48.812;9.128;2023-01-15T03:32:33;17.50;79.30
22108;DHT22;11220;48.812;9.128;2023-01-15T03:34:59;17.50;79.30
22108;DHT22;11220;48.812;9.128;2023-01-15T03:37:28;17.50;79.30
22108;DHT22;11220;48.812;9.128;2023-01-15T03:39:55;17.50;79.30
22108;DHT22;11220;48.812;9.128;2023-01-15T03:43:10;17.50;79.30
22108;DHT22;11220;48.812;9.128;2023-01-15T03:45:49;17.50;79.30
22108;DHT22;11220;48.812;9.128;2023-01-15T03:48:27;17.50;79.30
22108;DHT22;11220;48.812;9.128;2023-01-15T03:53:37;17.50;79.30
22108;DHT22;11220;48.812;9.128;2023-01-15T03:56:17;17.40;79.20
22108;DHT22;11220;48.812;9.128;2023-01-15T03:58:51;17.40;79.20
22108;DHT22;11220;48.812;9.128;2023-01-15T04:01:21;17.50;79.30
22108;DHT22;11220;48.812;9.128;2023-01-15T04:03:50;17.50;79.30
22108;DHT22;11220;48.812;9.128;2023-01-15T04:06:17;17.40;79.30
22108;DHT22;11220;48.812;9.128;2023-01-15T04:08:45;17.40;79.20
22108;DHT22;11220;48.812;9.128;2023-01-15T04:11:11;17.50;79.30
22108;DHT22;11220;48.812;9.128;2023-01-15T04:13:37;17.50;79.30
22108;DHT22;11220;48.812;9.128;2023-01-15T04:16:02;17.40;79.20
22108;DHT22;11220;48.812;9.128;2023-01-15T04:18:28;17.50;79.30
22108;DHT22;11220;48.812;9.128;2023-01-15T04:20:53;17.50;79.40
22108;DHT22;11220;48.812;9.128;2023-01-15T04:23:20;17.50;79.30
22108;DHT22;11220;48.812;9.128;2023-01-15T04:25:46;17.40;79.20
22108;DHT22;11220;48.812;9.128;2023-01-15T04:28:11;17.50;79.30
22108;DHT22;11220;48.812;9.128;2023-01-15T04:30:37;17.50;79.30
22108;DHT22;11220;48.812;9.128;2023-01-15T04:33:03;17.50;79.30
22108;DHT22;11220;48.812;9.128;2023-01-15T04:35:28;17.50;79.30
22108;DHT22;11220;48.812;9.128;2023-01-15T04:37:58;17.40;79.20
22108;DHT22;11220;48.812;9.128;2023-01-15T04:40:24;17.40;79.20
22108;DHT22;11220;48.812;9.128;2023-01-15T04:43:10;17.50;79.30
22108;DHT22;11220;48.812;9.128;2023-01-15T04:45:55;17.50;79.30
22108;DHT22;11220;48.812;9.128;2023-01-15T04:48:20;17.50;79.30
22108;DHT22;11220;48.812;9.128;2023-01-15T04:50:46;17.50;79.30
22108;DHT22;11220;48.812;9.128;2023-01-15T04:53:11;17.40;79.20
22108;DHT22;11220;48.812;9.128;2023-01-15T04:55:37;17.40;79.20
22108;DHT22;11220;48.812;9.128;2023-01-15T04:58:02;17.40;79.20
22108;DHT22;11220;48.812;9.128;2023-01-15T05:00:28;17.40;79.20
22108;DHT22;11220;48.812;9.128;2023-01-15T05:02:53;17.40;79.20
22108;DHT22;11220;48.812;9.128;2023-01-15T05:05:19;17.40;79.20
22108;DHT22;11220;48.812;9.128;2023-01-15T05:07:44;17.40;79.20
22108;DHT22;11220;48.812;9.128;2023-01-15T05:10:10;17.40;79.20
22108;DHT22;11220;48.812;9.128;2023-01-15T05:12:35;17.50;79.30
22108;DHT22;11220;48.812;9.128;2023-01-15T05:15:01;17.40;79.20
22108;DHT22;11220;48.812;9.128;2023-01-15T05:17:26;17.50;79.30
22108;DHT22;11220;48.812;9.128;2023-01-15T05:19:52;17.50;79.30
22108;DHT22;11220;48.812;9.128;2023-01-15T05:22:17;17.40;79.20
22108;DHT22;11220;48.812;9.128;2023-01-15T05:24:43;17.40;79.20
22108;DHT22;11220;48.812;9.128;2023-01-15T05:27:08;17.40;79.10
22108;DHT22;11220;48.812;9.128;2023-01-15T05:29:34;17.40;79.10
22108;DHT22;11220;48.812;9.128;2023-01-15T05:32:00;17.40;79.10
22108;DHT22;11220;48.812;9.128;2023-01-15T05:34:26;17.40;79.10
22108;DHT22;11220;48.812;9.128;2023-01-15T05:36:51;17.80;79.30
22108;DHT22;11220;48.812;9.128;2023-01-15T05:39:17;17.40;79.10
22108;DHT22;11220;48.812;9.128;2023-01-15T05:41:42;17.40;79.10
22108;DHT22;11220;48.812;9.128;2023-01-15T05:46:44;17.40;79.10
22108;DHT22;11220;48.812;9.128;2023-01-15T05:49:12;17.40;79.10
22108;DHT22;11220;48.812;9.128;2023-01-15T05:51:39;17.40;79.20
22108;DHT22;11220;48.812;9.128;2023-01-15T05:54:06;17.40;79.10
22108;DHT22;11220;48.812;9.128;2023-01-15T05:56:36;17.40;79.20
22108;DHT22;11220;48.812;9.128;2023-01-15T05:59:03;17.40;79.20
22108;DHT22;11220;48.812;9.128;2023-01-15T06:01:28;17.50;79.30
22108;DHT22;11220;48.812;9.128;2023-01-15T06:03:57;17.40;79.20
22108;DHT22;11220;48.812;9.128;2023-01-15T06:06:23;17.40;79.20
22108;DHT22;11220;48.812;9.128;2023-01-15T06:08:48;17.40;79.30
22108;DHT22;11220;48.812;9.128;2023-01-15T06:11:14;17.40;79.30
22108;DHT22;11220;48.812;9.128;2023-01-15T06:13:40;17.40;79.30
22108;DHT22;11220;48.812;9.128;2023-01-15T06:16:06;17.40;79.40
22108;DHT22;11220;48.812;9.128;2023-01-15T06:18:32;17.40;79.40
22108;DHT22;11220;48.812;9.128;2023-01-15T06:21:07;17.50;79.50
22108;DHT22;11220;48.812;9.128;2023-01-15T06:23:33;17.40;79.50
22108;DHT22;11220;48.812;9.128;2023-01-15T06:26:03;17.50;79.50
22108;DHT22;11220;48.812;9.128;2023-01-15T06:28:29;17.50;79.60
22108;DHT22;11220;48.812;9.128;2023-01-15T06:30:54;17.50;79.60
22108;DHT22;11220;48.812;9.128;2023-01-15T06:33:20;17.50;79.60
22108;DHT22;11220;48.812;9.128;2023-01-15T06:35:46;17.50;79.60
22108;DHT22;11220;48.812;9.128;2023-01-15T06:38:11;17.50;79.50
22108;DHT22;11220;48.812;9.128;2023-01-15T06:40:37;17.50;79.60
22108;DHT22;11220;48.812;9.128;2023-01-15T06:43:02;17.50;79.60
22108;DHT22;11220;48.812;9.128;2023-01-15T06:45:46;17.50;79.70
22108;DHT22;11220;48.812;9.128;2023-01-15T06:48:32;17.50;79.60
22108;DHT22;11220;48.812;9.128;2023-01-15T06:50:57;17.50;79.60
22108;DHT22;11220;48.812;9.128;2023-01-15T06:53:23;17.50;79.60
22108;DHT22;11220;48.812;9.128;2023-01-15T06:55:49;17.60;79.60
22108;DHT22;11220;48.812;9.128;2023-01-15T06:58:14;17.50;79.50
22108;DHT22;11220;48.812;9.128;2023-01-15T07:00:40;17.50;79.50
22108;DHT22;11220;48.812;9.128;2023-01-15T07:03:09;17.50;79.50
22108;DHT22;11220;48.812;9.128;2023-01-15T07:05:39;17.50;79.50
22108;DHT22;11220;48.812;9.128;2023-01-15T07:08:05;17.50;79.40
22108;DHT22;11220;48.812;9.128;2023-01-15T07:10:33;17.50;79.40
22108;DHT22;11220;48.812;9.128;2023-01-15T07:12:58;17.50;79.40
22108;DHT22;11220;48.812;9.128;2023-01-15T07:15:24;17.50;79.30
22108;DHT22;11220;48.812;9.128;2023-01-15T07:17:53;17.50;79.40
22108;DHT22;11220;48.812;9.128;2023-01-15T07:20:19;17.50;79.40
22108;DHT22;11220;48.812;9.128;2023-01-15T07:22:48;17.50;79.40
22108;DHT22;11220;48.812;9.128;2023-01-15T07:25:13;17.50;79.30
22108;DHT22;11220;48.812;9.128;2023-01-15T07:27:39;17.50;79.30
22108;DHT22;11220;48.812;9.128;2023-01-15T07:30:05;17.50;79.30
22108;DHT22;11220;48.812;9.128;2023-01-15T07:32:30;17.50;79.30
22108;DHT22;11220;48.812;9.128;2023-01-15T07:34:56;17.50;79.30
22108;DHT22;11220;48.812;9.128;2023-01-15T07:37:21;17.50;79.20
22108;DHT22;11220;48.812;9.128;2023-01-15T07:39:47;17.50;79.20
22108;DHT22;11220;48.812;9.128;2023-01-15T07:42:12;17.50;79.20
22108;DHT22;11220;48.812;9.128;2023-01-15T07:44:56;17.50;79.30
22108;DHT22;11220;48.812;9.128;2023-01-15T07:47:40;17.50;79.20
22108;DHT22;11220;48.812;9.128;2023-01-15T07:50:24;17.40;79.20
22108;DHT22;11220;48.812;9.128;2023-01-15T07:52:50;17.40;79.20
22108;DHT22;11220;48.812;9.128;2023-01-15T07:55:16;17.40;79.20
22108;DHT22;11220;48.812;9.128;2023-01-15T07:57:42;17.50;79.30
22108;DHT22;11220;48.812;9.128;2023-01-15T08:00:11;17.40;80.10
22108;DHT22;11220;48.812;9.128;2023-01-15T08:02:38;17.50;79.20
22108;DHT22;11220;48.812;9.128;2023-01-15T08:05:04;17.40;79.20
22108;DHT22;11220;48.812;9.128;2023-01-15T08:07:30;17.50;79.20
22108;DHT22;11220;48.812;9.128;2023-01-15T08:09:55;17.40;79.10
22108;DHT22;11220;48.812;9.128;2023-01-15T08:12:21;17.50;79.20
22108;DHT22;11220;48.812;9.128;2023-01-15T08:15:07;17.50;79.20
22108;DHT22;11220;48.812;9.128;2023-01-15T08:17:45;17.50;79.20
22108;DHT22;11220;48.812;9.128;2023-01-15T08:20:20;17.40;79.00
22108;DHT22;11220;48.812;9.128;2023-01-15T08:22:46;17.40;79.00
22108;DHT22;11220;48.812;9.128;2023-01-15T08:25:18;17.40;79.00
22108;DHT22;11220;48.812;9.128;2023-01-15T08:27:44;17.50;79.00
22108;DHT22;11220;48.812;9.128;2023-01-15T08:30:18;17.50;79.00
22108;DHT22;11220;48.812;9.128;2023-01-15T08:32:44;17.50;79.00
22108;DHT22;11220;48.812;9.128;2023-01-15T08:35:10;17.50;78.90
22108;DHT22;11220;48.812;9.128;2023-01-15T08:37:37;17.50;78.90
22108;DHT22;11220;48.812;9.128;2023-01-15T08:40:03;17.40;78.80
22108;DHT22;11220;48.812;9.128;2023-01-15T08:42:29;17.40;78.80
22108;DHT22;11220;48.812;9.128;2023-01-15T08:44:54;17.50;78.80
22108;DHT22;11220;48.812;9.128;2023-01-15T08:47:20;17.40;78.70
22108;DHT22;11220;48.812;9.128;2023-01-15T08:49:46;17.40;78.70
22108;DHT22;11220;48.812;9.128;2023-01-15T08:52:13;17.50;78.80
22108;DHT22;11220;48.812;9.128;2023-01-15T08:54:39;17.50;78.70
22108;DHT22;11220;48.812;9.128;2023-01-15T08:57:04;17.50;78.70
22108;DHT22;11220;48.812;9.128;2023-01-15T08:59:30;17.50;78.70
22108;DHT22;11220;48.812;9.128;2023-01-15T09:01:55;17.50;79.70
22108;DHT22;11220;48.812;9.128;2023-01-15T09:04:21;17.50;78.60
22108;DHT22;11220;48.812;9.128;2023-01-15T09:06:48;17.40;78.60
22108;DHT22;11220;48.812;9.128;2023-01-15T09:09:14;17.40;78.60
22108;DHT22;11220;48.812;9.128;2023-01-15T09:11:40;17.50;78.70
22108;DHT22;11220;48.812;9.128;2023-01-15T09:14:10;17.50;78.70
22108;DHT22;11220;48.812;9.128;2023-01-15T09:16:37;17.40;78.60
22108;DHT22;11220;48.812;9.128;2023-01-15T09:19:04;17.60;78.80
22108;DHT22;11220;48.812;9.128;2023-01-15T09:21:30;17.40;78.70
22108;DHT22;11220;48.812;9.128;2023-01-15T09:23:55;17.40;78.70
22108;DHT22;11220;48.812;9.128;2023-01-15T09:28:54;17.40;78.80
22108;DHT22;11220;48.812;9.128;2023-01-15T09:31:21;17.40;78.80
22108;DHT22;11220;48.812;9.128;2023-01-15T09:33:47;17.50;78.80
22108;DHT22;11220;48.812;9.128;2023-01-15T09:36:33;17.40;78.80
22108;DHT22;11220;48.812;9.128;2023-01-15T09:38:59;17.40;78.80
22108;DHT22;11220;48.812;9.128;2023-01-15T09:41:34;17.40;78.80
22108;DHT22;11220;48.812;9.128;2023-01-15T09:44:43;17.40;78.90
22108;DHT22;11220;48.812;9.128;2023-01-15T09:47:29;17.40;78.80
22108;DHT22;11220;48.812;9.128;2023-01-15T09:55:15;17.40;78.80
22108;DHT22;11220;48.812;9.128;2023-01-15T09:57:42;17.40;78.80
22108;DHT22;11220;48.812;9.128;2023-01-15T10:00:23;17.40;78.90
22108;DHT22;11220;48.812;9.128;2023-01-15T10:05:55;17.50;78.90
22108;DHT22;11220;48.812;9.128;2023-01-15T10:08:30;17.40;78.90
22108;DHT22;11220;48.812;9.128;2023-01-15T10:11:20;17.50;79.00
22108;DHT22;11220;48.812;9.128;2023-01-15T10:13:52;17.40;78.90
22108;DHT22;11220;48.812;9.128;2023-01-15T10:16:26;17.40;78.90
22108;DHT22;11220;48.812;9.128;2023-01-15T10:18:53;17.40;78.90
22108;DHT22;11220;48.812;9.128;2023-01-15T10:21:28;17.40;78.90
22108;DHT22;11220;48.812;9.128;2023-01-15T10:24:06;17.40;79.00
22108;DHT22;11220;48.812;9.128;2023-01-15T10:26:55;17.40;78.90
22108;DHT22;11220;48.812;9.128;2023-01-15T10:32:02;17.40;78.90
22108;DHT22;11220;48.812;9.128;2023-01-15T10:34:32;17.40;78.90
22108;DHT22;11220;48.812;9.128;2023-01-15T10:37:07;17.40;78.90
22108;DHT22;11220;48.812;9.128;2023-01-15T10:42:22;17.40;79.00
22108;DHT22;11220;48.812;9.128;2023-01-15T10:45:13;17.40;79.00
22108;DHT22;11220;48.812;9.128;2023-01-15T10:47:42;17.40;79.00
22108;DHT22;11220;48.812;9.128;2023-01-15T10:50:16;17.40;79.00
22108;DHT22;11220;48.812;9.128;2023-01-15T10:52:49;17.40;79.00
22108;DHT22;11220;48.812;9.128;2023-01-15T10:55:25;17.40;79.00
22108;DHT22;11220;48.812;9.128;2023-01-15T11:00:31;17.40;79.00
22108;DHT22;11220;48.812;9.128;2023-01-15T11:03:02;17.40;79.00
22108;DHT22;11220;48.812;9.128;2023-01-15T11:05:32;17.40;79.00
22108;DHT22;11220;48.812;9.128;2023-01-15T11:08:00;17.40;79.00
22108;DHT22;11220;48.812;9.128;2023-01-15T11:10:27;17.40;79.10
22108;DHT22;11220;48.812;9.128;2023-01-15T11:13:07;17.40;79.10
22108;DHT22;11220;48.812;9.128;2023-01-15T11:15:54;17.40;79.20
22108;DHT22;11220;48.812;9.128;2023-01-15T11:18:41;17.50;79.30
22108;DHT22;11220;48.812;9.128;2023-01-15T11:21:26;17.40;79.30
22108;DHT22;11220;48.812;9.128;2023-01-15T11:23:54;17.50;79.40
22108;DHT22;11220;48.812;9.128;2023-01-15T11:26:22;17.50;79.30
22108;DHT22;11220;48.812;9.128;2023-01-15T11:28:49;17.50;79.30
22108;DHT22;11220;48.812;9.128;2023-01-15T11:31:16;17.50;79.30
22108;DHT22;11220;48.812;9.128;2023-01-15T11:34:01;17.50;79.30
22108;DHT22;11220;48.812;9.128;2023-01-15T11:36:28;17.50;79.20
22108;DHT22;11220;48.812;9.128;2023-01-15T11:38:54;17.50;79.20
22108;DHT22;11220;48.812;9.128;2023-01-15T11:41:31;17.50;79.10
22108;DHT22;11220;48.812;9.128;2023-01-15T11:44:17;17.50;79.20
22108;DHT22;11220;48.812;9.128;2023-01-15T11:47:03;17.50;79.30
22108;DHT22;11220;48.812;9.128;2023-01-15T11:49:52;17.50;79.30
22108;DHT22;11220;48.812;9.128;2023-01-15T11:52:45;17.50;79.30
22108;DHT22;11220;48.812;9.128;2023-01-15T11:55:19;17.50;79.30
22108;DHT22;11220;48.812;9.128;2023-01-15T11:57:46;17.50;79.20
22108;DHT22;11220;48.812;9.128;2023-01-15T12:00:26;17.50;79.30
22108;DHT22;11220;48.812;9.128;2023-01-15T12:02:58;17.50;79.30
22108;DHT22;11220;48.812;9.128;2023-01-15T12:05:36;17.50;79.30
22108;DHT22;11220;48.812;9.128;2023-01-15T12:08:19;17.50;79.30
22108;DHT22;11220;48.812;9.128;2023-01-15T12:10:56;17.50;79.30
22108;DHT22;11220;48.812;9.128;2023-01-15T12:16:34;17.50;79.30
22108;DHT22;11220;48.812;9.128;2023-01-15T12:30:49;17.50;79.00
22108;DHT22;11220;48.812;9.128;2023-01-15T12:36:07;17.50;79.00
22108;DHT22;11220;48.812;9.128;2023-01-15T12:38:50;17.50;79.00
22108;DHT22;11220;48.812;9.128;2023-01-15T12:41:34;17.50;78.90
22108;DHT22;11220;48.812;9.128;2023-01-15T12:44:34;17.50;78.90
22108;DHT22;11220;48.812;9.128;2023-01-15T12:47:23;17.50;79.00
22108;DHT22;11220;48.812;9.128;2023-01-15T12:52:50;17.50;78.80
22108;DHT22;11220;48.812;9.128;2023-01-15T12:55:22;17.50;78.90
22108;DHT22;11220;48.812;9.128;2023-01-15T12:57:52;17.50;78.80
22108;DHT22;11220;48.812;9.128;2023-01-15T13:00:36;17.50;78.80
22108;DHT22;11220;48.812;9.128;2023-01-15T13:03:27;17.50;78.80
22108;DHT22;11220;48.812;9.128;2023-01-15T13:06:00;17.50;78.70
22108;DHT22;11220;48.812;9.128;2023-01-15T13:08:38;17.50;78.80
22108;DHT22;11220;48.812;9.128;2023-01-15T13:11:05;17.50;78.70
22108;DHT22;11220;48.812;9.128;2023-01-15T13:13:38;17.50;78.80
22108;DHT22;11220;48.812;9.128;2023-01-15T13:16:23;17.50;78.80
22108;DHT22;11220;48.812;9.128;2023-01-15T13:19:25;17.50;78.90
22108;DHT22;11220;48.812;9.128;2023-01-15T13:21:56;17.50;78.90
22108;DHT22;11220;48.812;9.128;2023-01-15T13:27:13;17.50;79.00
22108;DHT22;11220;48.812;9.128;2023-01-15T13:32:50;17.50;78.80
22108;DHT22;11220;48.812;9.128;2023-01-15T13:35:32;17.60;79.00
22108;DHT22;11220;48.812;9.128;2023-01-15T13:38:05;17.40;78.80
22108;DHT22;11220;48.812;9.128;2023-01-15T13:40:39;17.50;78.90
22108;DHT22;11220;48.812;9.128;2023-01-15T13:43:07;17.50;78.90
22108;DHT22;11220;48.812;9.128;2023-01-15T13:45:37;17.50;79.00
22108;DHT22;11220;48.812;9.128;2023-01-15T13:48:28;17.50;79.20
22108;DHT22;11220;48.812;9.128;2023-01-15T13:50:57;17.60;79.40
22108;DHT22;11220;48.812;9.128;2023-01-15T13:53:38;17.60;79.50
22108;DHT22;11220;48.812;9.128;2023-01-15T13:56:07;17.60;76.70
22108;DHT22;11220;48.812;9.128;2023-01-15T13:58:53;17.30;69.90
22108;DHT22;11220;48.812;9.128;2023-01-15T14:04:06;16.40;63.80
22108;DHT22;11220;48.812;9.128;2023-01-15T14:06:49;16.00;63.10
22108;DHT22;11220;48.812;9.128;2023-01-15T14:17:13;14.70;67.60
22108;DHT22;11220;48.812;9.128;2023-01-15T14:25:00;15.20;72.90
22108;DHT22;11220;48.812;9.128;2023-01-15T14:27:40;15.40;73.50
22108;DHT22;11220;48.812;9.128;2023-01-15T14:33:49;15.80;74.10
22108;DHT22;11220;48.812;9.128;2023-01-15T14:36:22;16.00;74.20
22108;DHT22;11220;48.812;9.128;2023-01-15T14:38:55;16.20;74.20
22108;DHT22;11220;48.812;9.128;2023-01-15T14:41:33;16.30;74.20
22108;DHT22;11220;48.812;9.128;2023-01-15T14:44:26;16.50;74.20
22108;DHT22;11220;48.812;9.128;2023-01-15T14:46:58;16.60;74.20
22108;DHT22;11220;48.812;9.128;2023-01-15T14:49:29;16.70;74.20
22108;DHT22;11220;48.812;9.128;2023-01-15T14:51:57;16.70;74.10
22108;DHT22;11220;48.812;9.128;2023-01-15T14:54:23;16.80;74.20
22108;DHT22;11220;48.812;9.128;2023-01-15T14:56:54;16.80;74.20
22108;DHT22;11220;48.812;9.128;2023-01-15T14:59:51;16.90;74.30
22108;DHT22;11220;48.812;9.128;2023-01-15T15:02:24;16.90;74.30
22108;DHT22;11220;48.812;9.128;2023-01-15T15:04:56;17.00;74.40
22108;DHT22;11220;48.812;9.128;2023-01-15T15:07:33;17.00;74.40
22108;DHT22;11220;48.812;9.128;2023-01-15T15:12:58;17.10;74.60
22108;DHT22;11220;48.812;9.128;2023-01-15T15:18:41;17.20;74.80
22108;DHT22;11220;48.812;9.128;2023-01-15T15:21:27;17.10;74.80
22108;DHT22;11220;48.812;9.128;2023-01-15T15:29:00;17.20;75.00
22108;DHT22;11220;48.812;9.128;2023-01-15T15:31:28;17.20;75.00
22108;DHT22;11220;48.812;9.128;2023-01-15T15:33:55;17.20;75.10
22108;DHT22;11220;48.812;9.128;2023-01-15T15:36:23;17.20;75.10
22108;DHT22;11220;48.812;9.128;2023-01-15T15:39:34;17.20;75.20
22108;DHT22;11220;48.812;9.128;2023-01-15T15:41:50;17.20;75.30
22108;DHT22;11220;48.812;9.128;2023-01-15T15:44:50;17.20;75.30
22108;DHT22;11220;48.812;9.128;2023-01-15T15:47:37;17.30;75.50
22108;DHT22;11220;48.812;9.128;2023-01-15T15:50:27;17.30;75.50
22108;DHT22;11220;48.812;9.128;2023-01-15T15:52:55;17.30;75.50
22108;DHT22;11220;48.812;9.128;2023-01-15T15:55:23;17.30;75.50
22108;DHT22;11220;48.812;9.128;2023-01-15T15:57:53;17.30;75.70
22108;DHT22;11220;48.812;9.128;2023-01-15T16:00:30;17.30;75.70
22108;DHT22;11220;48.812;9.128;2023-01-15T16:03:01;17.30;75.80
22108;DHT22;11220;48.812;9.128;2023-01-15T16:05:29;17.30;75.70
22108;DHT22;11220;48.812;9.128;2023-01-15T16:08:16;17.30;75.80
22108;DHT22;11220;48.812;9.128;2023-01-15T16:10:43;17.30;75.80
22108;DHT22;11220;48.812;9.128;2023-01-15T16:13:18;17.30;75.70
22108;DHT22;11220;48.812;9.128;2023-01-15T16:15:45;17.30;75.60
22108;DHT22;11220;48.812;9.128;2023-01-15T16:18:24;17.30;76.60
22108;DHT22;11220;48.812;9.128;2023-01-15T16:20:51;17.30;75.60
22108;DHT22;11220;48.812;9.128;2023-01-15T16:23:25;17.30;75.50
22108;DHT22;11220;48.812;9.128;2023-01-15T16:26:18;17.30;75.50
22108;DHT22;11220;48.812;9.128;2023-01-15T16:28:50;17.30;75.50
22108;DHT22;11220;48.812;9.128;2023-01-15T16:31:18;17.30;75.40
22108;DHT22;11220;48.812;9.128;2023-01-15T16:33:44;17.30;75.30
22108;DHT22;11220;48.812;9.128;2023-01-15T16:36:11;17.30;75.20
22108;DHT22;11220;48.812;9.128;2023-01-15T16:38:40;17.30;75.10
22108;DHT22;11220;48.812;9.128;2023-01-15T16:41:06;17.30;75.10
22108;DHT22;11220;48.812;9.128;2023-01-15T16:43:50;17.30;75.10
22108;DHT22;11220;48.812;9.128;2023-01-15T16:46:18;17.30;74.90
22108;DHT22;11220;48.812;9.128;2023-01-15T16:48:45;17.30;74.80
22108;DHT22;11220;48.812;9.128;2023-01-15T16:51:32;17.30;74.70
22108;DHT22;11220;48.812;9.128;2023-01-15T16:54:00;17.30;74.60
22108;DHT22;11220;48.812;9.128;2023-01-15T16:58:59;17.30;74.40
22108;DHT22;11220;48.812;9.128;2023-01-15T17:03:57;17.20;74.10
22108;DHT22;11220;48.812;9.128;2023-01-15T17:06:24;17.20;74.00
22108;DHT22;11220;48.812;9.128;2023-01-15T17:08:51;17.20;73.90
22108;DHT22;11220;48.812;9.128;2023-01-15T17:11:26;17.20;73.80
22108;DHT22;11220;48.812;9.128;2023-01-15T17:14:10;17.20;73.70
22108;DHT22;11220;48.812;9.128;2023-01-15T17:16:43;17.20;73.60
22108;DHT22;11220;48.812;9.128;2023-01-15T17:19:10;17.20;73.40
22108;DHT22;11220;48.812;9.128;2023-01-15T17:21:36;17.20;73.40
22108;DHT22;11220;48.812;9.128;2023-01-15T17:24:05;17.30;73.30
22108;DHT22;11220;48.812;9.128;2023-01-15T17:26:31;17.20;73.20
22108;DHT22;11220;48.812;9.128;2023-01-15T17:28:57;17.30;73.10
22108;DHT22;11220;48.812;9.128;2023-01-15T17:31:28;17.20;72.90
22108;DHT22;11220;48.812;9.128;2023-01-15T17:33:55;17.20;72.90
22108;DHT22;11220;48.812;9.128;2023-01-15T17:36:21;17.20;72.80
22108;DHT22;11220;48.812;9.128;2023-01-15T17:38:46;17.20;72.70
22108;DHT22;11220;48.812;9.128;2023-01-15T17:41:13;17.20;72.70
22108;DHT22;11220;48.812;9.128;2023-01-15T17:43:39;17.20;72.60